Time;durP1;ratioP1;P1;durP2;ratioP2;P2;SDS_P1;SDS_P2;PMS_P1;PMS_P2;Temp;Humidity;BMP_temperature;BMP_pressure;BME280_temperature;BME280_humidity;BME280_pressure;Samples;Min_cycle;Max_cycle;Signal;HPM_P1;HPM_P2
2022/06/25 00:01:13;;;;;;;3.90;1.80;;;;;;;16.47;97.72;100678.91;6248325;23;20011;-85
2022/06/25 00:03:39;;;;;;;3.13;1.75;;;;;;;16.51;97.40;100683.91;6221740;23;20031;-85
2022/06/25 00:06:06;;;;;;;3.20;1.90;;;;;;;16.49;97.82;100686.91;6247723;23;20004;-86
2022/06/25 00:08:36;;;;;;;3.03;1.90;;;;;;;16.46;97.74;100685.50;6248629;23;20004;-86
2022/06/25 00:11:03;;;;;;;3.10;1.90;;;;;;;16.49;97.56;100679.50;6222456;23;20298;-85
2022/06/25 00:13:28;;;;;;;3.80;2.08;;;;;;;16.51;97.24;100687.47;6220752;23;20004;-85
2022/06/25 00:15:54;;;;;;;4.13;2.20;;;;;;;16.44;97.45;100690.41;6221363;23;20333;-86
2022/06/25 00:18:20;;;;;;;5.20;2.10;;;;;;;16.42;97.79;100694.50;6195542;23;20004;-86
2022/06/25 00:20:46;;;;;;;2.77;2.10;;;;;;;16.37;97.96;100698.00;6221360;23;20004;-85
2022/06/25 00:23:14;;;;;;;4.30;2.50;;;;;;;16.37;97.80;100691.69;6221090;23;20038;-85
2022/06/25 00:25:39;;;;;;;3.78;2.30;;;;;;;16.33;97.93;100696.03;6221197;23;20008;-86
2022/06/25 00:28:06;;;;;;;3.60;2.20;;;;;;;16.29;98.10;100688.34;6247684;23;20067;-86
2022/06/25 00:30:35;;;;;;;4.00;2.27;;;;;;;16.29;97.85;100690.25;6220727;23;20032;-86
2022/06/25 00:33:01;;;;;;;3.72;2.40;;;;;;;16.27;97.92;100701.47;6221324;23;20095;-86
2022/06/25 00:35:27;;;;;;;8.38;2.47;;;;;;;16.28;98.25;100703.13;6248192;23;20032;-85
2022/06/25 00:37:52;;;;;;;2.70;2.10;;;;;;;16.26;98.20;100697.06;6220953;23;20008;-86
2022/06/25 00:40:21;;;;;;;4.40;2.43;;;;;;;16.23;98.20;100694.03;6221116;23;20008;-86
2022/06/25 00:42:50;;;;;;;5.00;2.50;;;;;;;16.21;98.81;100705.22;6220616;23;20011;-86
2022/06/25 00:45:15;;;;;;;3.50;2.60;;;;;;;16.19;98.54;100703.81;6220541;23;20020;-86
2022/06/25 00:47:41;;;;;;;3.50;2.67;;;;;;;16.16;99.29;100696.94;6247146;23;20502;-87
2022/06/25 00:50:08;;;;;;;5.00;2.73;;;;;;;16.15;99.13;100706.25;6246085;23;20147;-86
2022/06/25 00:52:41;;;;;;;6.35;2.83;;;;;;;16.10;99.37;100706.19;6219345;23;20008;-86
2022/06/25 00:55:12;;;;;;;3.92;2.90;;;;;;;16.09;99.25;100699.06;6219944;23;20103;-85
2022/06/25 00:57:40;;;;;;;4.20;2.67;;;;;;;16.05;98.88;100700.66;6245647;23;20078;-86
2022/06/25 01:00:09;;;;;;;4.10;3.17;;;;;;;16.02;99.77;100702.00;6219167;23;20008;-87
2022/06/25 01:02:35;;;;;;;5.63;2.97;;;;;;;16.00;99.62;100703.31;6219040;23;20012;-86
2022/06/25 01:05:08;;;;;;;6.32;2.90;;;;;;;16.00;99.57;100712.34;6194289;23;20015;-85
2022/06/25 01:07:35;;;;;;;4.00;3.13;;;;;;;15.94;99.52;100711.50;6246153;23;20004;-86
2022/06/25 01:10:02;;;;;;;7.20;2.90;;;;;;;15.95;99.59;100718.59;6219611;23;20011;-86
2022/06/25 01:12:27;;;;;;;3.78;3.10;;;;;;;15.93;99.80;100711.75;6246020;23;20003;-86
2022/06/25 01:15:22;;;;;;;4.17;3.20;;;;;;;15.93;99.52;100717.22;6246020;23;20019;-86
2022/06/25 01:17:50;;;;;;;5.82;3.28;;;;;;;15.86;100.00;100722.88;6219652;23;20012;-85
2022/06/25 01:20:21;;;;;;;5.47;3.42;;;;;;;15.86;100.00;100716.56;6219719;23;20012;-86
2022/06/25 01:22:47;;;;;;;6.70;3.30;;;;;;;15.84;99.88;100722.31;6245956;23;20011;-86
2022/06/25 01:25:13;;;;;;;4.88;3.40;;;;;;;15.83;99.96;100723.38;6218290;23;20016;-86
2022/06/25 01:27:41;;;;;;;4.43;3.30;;;;;;;15.77;100.00;100727.91;6246011;23;20043;-86
2022/06/25 01:30:11;;;;;;;4.65;3.30;;;;;;;15.76;99.95;100728.97;6245654;23;20004;-85
2022/06/25 01:32:37;;;;;;;4.90;3.33;;;;;;;15.76;100.00;100736.38;6194418;23;20353;-86
2022/06/25 01:35:04;;;;;;;5.33;3.50;;;;;;;15.75;100.00;100738.28;6245828;23;20083;-86
2022/06/25 01:37:30;;;;;;;7.22;3.28;;;;;;;15.72;99.73;100737.94;6245334;23;20007;-87
2022/06/25 01:39:56;;;;;;;5.57;3.50;;;;;;;15.69;100.00;100739.28;6219098;23;20011;-86
2022/06/25 01:45:08;;;;;;;6.40;3.60;;;;;;;15.68;99.87;100747.72;6195887;23;1144716;-86
2022/06/25 01:47:34;;;;;;;5.10;3.30;;;;;;;15.65;99.61;100751.81;6220706;23;20012;-86
2022/06/25 01:50:02;;;;;;;6.95;3.40;;;;;;;15.66;99.81;100748.00;6194907;23;20012;-86
2022/06/25 01:52:28;;;;;;;4.63;2.75;;;;;;;15.66;99.58;100747.16;6220207;23;20007;-86
2022/06/25 01:54:59;;;;;;;9.53;3.17;;;;;;;15.64;99.85;100755.63;6246776;23;20004;-86
2022/06/25 01:57:24;;;;;;;4.45;3.03;;;;;;;15.61;99.40;100758.88;6247096;23;20429;-86
2022/06/25 01:59:51;;;;;;;3.67;3.20;;;;;;;15.60;99.62;100758.06;6220075;23;20004;-85
2022/06/25 02:02:17;;;;;;;4.57;2.95;;;;;;;15.58;99.83;100767.56;6220130;23;20016;-86
2022/06/25 02:04:42;;;;;;;6.23;3.67;;;;;;;15.54;99.81;100772.69;6220182;23;20027;-86
2022/06/25 02:07:08;;;;;;;6.20;3.00;;;;;;;15.51;100.00;100773.19;6219819;23;20012;-86
2022/06/25 02:09:33;;;;;;;6.65;3.17;;;;;;;15.45;100.00;100771.47;6220815;23;20380;-86
2022/06/25 02:12:01;;;;;;;9.37;3.40;;;;;;;15.46;100.00;100775.03;6194861;23;20482;-85
2022/06/25 02:14:29;;;;;;;8.00;2.97;;;;;;;15.45;100.00;100776.94;6220684;23;20016;-86
2022/06/25 02:16:54;;;;;;;8.05;3.13;;;;;;;15.43;100.00;100781.84;6218403;23;20047;-86
2022/06/25 02:19:21;;;;;;;10.60;3.30;;;;;;;15.41;100.00;100779.38;6219639;23;20053;-86
2022/06/25 02:21:46;;;;;;;6.78;3.20;;;;;;;15.39;100.00;100781.50;6219746;23;20115;-86
2022/06/25 02:24:12;;;;;;;5.23;3.37;;;;;;;15.34;100.00;100784.16;6219732;23;20039;-86
2022/06/25 02:26:40;;;;;;;5.60;2.97;;;;;;;15.32;100.00;100788.22;6219798;23;20008;-86
2022/06/25 02:29:06;;;;;;;4.10;3.23;;;;;;;15.29;100.00;100794.19;6220211;23;20000;-86
2022/06/25 02:31:32;;;;;;;6.55;3.20;;;;;;;15.24;100.00;100793.00;6219684;23;20371;-85
2022/06/25 02:33:57;;;;;;;5.00;3.17;;;;;;;15.20;100.00;100794.59;6220928;23;20018;-86
2022/06/25 02:36:23;;;;;;;6.90;3.13;;;;;;;15.20;100.00;100799.22;6246623;23;20011;-86
2022/06/25 02:38:48;;;;;;;4.95;3.00;;;;;;;15.17;100.00;100802.47;6220821;23;20090;-86
2022/06/25 02:41:14;;;;;;;4.43;3.00;;;;;;;15.17;100.00;100806.00;6219463;23;20011;-85
2022/06/25 02:43:39;;;;;;;4.57;3.20;;;;;;;15.12;100.00;100802.34;6194380;23;20359;-86
2022/06/25 02:46:05;;;;;;;5.78;3.40;;;;;;;15.09;100.00;100807.25;6220225;23;20020;-86
2022/06/25 02:48:30;;;;;;;6.27;3.40;;;;;;;15.07;100.00;100811.28;6220836;23;20008;-86
2022/06/25 02:50:55;;;;;;;6.13;4.00;;;;;;;15.04;100.00;100818.09;6219932;23;20008;-86
2022/06/25 02:53:24;;;;;;;9.23;4.00;;;;;;;15.05;100.00;100822.47;6219847;23;20016;-86
2022/06/25 03:01:20;;;;;;;7.20;4.30;;;;;;;15.14;100.00;100827.56;6246231;23;20015;-86
2022/06/25 03:03:46;;;;;;;7.18;4.30;;;;;;;15.15;100.00;100818.28;6219387;23;20000;-85
2022/06/25 03:06:14;;;;;;;5.83;4.30;;;;;;;15.17;100.00;100819.69;6219248;23;20015;-85
2022/06/25 03:08:43;;;;;;;9.38;4.93;;;;;;;15.14;100.00;100820.16;6219895;23;20043;-86
2022/06/25 03:11:09;;;;;;;17.45;5.03;;;;;;;15.12;100.00;100818.75;6219944;23;20004;-86
2022/06/25 03:13:36;;;;;;;7.23;4.57;;;;;;;15.13;100.00;100817.69;6246670;23;20015;-86
2022/06/25 03:16:07;;;;;;;7.25;3.97;;;;;;;15.11;100.00;100817.94;6220001;23;20004;-86
2022/06/25 03:18:34;;;;;;;8.07;4.63;;;;;;;15.12;100.00;100822.34;6219255;23;20008;-86
2022/06/25 03:21:00;;;;;;;9.23;4.70;;;;;;;15.12;100.00;100819.59;6219786;23;20054;-86
2022/06/25 03:23:26;;;;;;;9.80;4.18;;;;;;;15.13;100.00;100815.78;6219327;23;20012;-84
2022/06/25 03:25:52;;;;;;;8.57;4.80;;;;;;;15.17;100.00;100816.94;6219660;23;20042;-85
2022/06/25 03:28:17;;;;;;;8.13;4.70;;;;;;;15.23;100.00;100823.31;6246227;23;20001;-86
2022/06/25 03:30:43;;;;;;;9.43;4.28;;;;;;;15.22;100.00;100818.94;6194416;23;20012;-89
2022/06/25 03:33:13;;;;;;;5.93;4.30;;;;;;;15.26;100.00;100820.94;6219632;23;20091;-86
2022/06/25 03:35:39;;;;;;;7.35;4.45;;;;;;;15.32;100.00;100829.22;6246827;23;20015;-86
2022/06/25 03:38:05;;;;;;;7.07;4.00;;;;;;;15.34;100.00;100825.16;6220424;23;20005;-86
2022/06/25 03:40:30;;;;;;;6.43;4.03;;;;;;;15.39;99.79;100833.44;6219652;23;20411;-86
2022/06/25 03:42:59;;;;;;;5.00;3.87;;;;;;;15.46;99.65;100830.56;6194336;23;20106;-87
2022/06/25 03:45:32;;;;;;;8.15;3.92;;;;;;;15.51;99.71;100833.34;6189833;23;20079;-86
2022/06/25 03:48:01;;;;;;;6.20;3.83;;;;;;;15.54;99.13;100837.50;6190374;23;20331;-86
2022/06/25 03:50:26;;;;;;;7.65;4.28;;;;;;;15.61;98.51;100843.66;6190515;23;20017;-86
2022/06/25 03:52:57;;;;;;;6.00;3.83;;;;;;;15.65;98.57;100843.97;6189272;23;20419;-86
2022/06/25 03:55:22;;;;;;;5.53;4.05;;;;;;;15.65;98.11;100831.13;6164189;23;20050;-86
2022/06/25 03:57:48;;;;;;;6.40;3.80;;;;;;;15.67;98.53;100837.16;6189604;23;20005;-86
2022/06/25 04:00:17;;;;;;;7.47;3.95;;;;;;;15.67;98.88;100842.66;6189122;23;20485;-85
2022/06/25 04:02:44;;;;;;;5.43;3.73;;;;;;;15.71;98.61;100840.25;6165099;23;20015;-85
2022/06/25 04:05:12;;;;;;;9.05;3.65;;;;;;;15.71;98.12;100837.53;6189572;23;20080;-86
2022/06/25 04:07:42;;;;;;;10.70;3.70;;;;;;;15.78;98.11;100838.19;6188306;23;20009;-86
2022/06/25 04:10:09;;;;;;;8.98;3.75;;;;;;;15.84;97.99;100850.88;6189106;23;20330;-86
2022/06/25 04:12:39;;;;;;;7.78;3.88;;;;;;;15.88;97.51;100846.53;6165234;23;20312;-85
2022/06/25 04:15:08;;;;;;;4.70;3.50;;;;;;;15.94;97.22;100847.44;6191948;23;20073;-86
2022/06/25 04:17:36;;;;;;;4.18;3.78;;;;;;;15.96;96.87;100848.03;6217220;23;20327;-86
2022/06/25 04:20:05;;;;;;;3.88;3.50;;;;;;;16.05;97.71;100845.72;6166879;23;20012;-86
2022/06/25 04:22:31;;;;;;;4.95;3.63;;;;;;;16.08;96.29;100850.69;6189963;23;20050;-86
2022/06/25 04:24:56;;;;;;;5.20;3.07;;;;;;;16.16;96.08;100857.63;6192143;23;20046;-86
2022/06/25 04:30:15;;;;;;;5.15;3.47;;;;;;;16.22;96.00;100848.38;6218164;23;20055;-86
2022/06/25 04:32:43;;;;;;;6.43;3.85;;;;;;;16.28;95.81;100853.69;6217197;23;20013;-86
2022/06/25 04:35:08;;;;;;;6.87;3.30;;;;;;;16.37;95.88;100859.56;6215727;23;20004;-86
2022/06/25 04:37:39;;;;;;;4.88;3.08;;;;;;;16.39;95.38;100862.84;6190345;23;20000;-86
2022/06/25 04:40:05;;;;;;;6.03;3.17;;;;;;;16.41;95.17;100863.41;6190923;23;20434;-86
2022/06/25 04:42:31;;;;;;;4.80;3.07;;;;;;;16.45;95.40;100864.56;6190690;23;20020;-86
2022/06/25 04:44:56;;;;;;;4.20;3.30;;;;;;;16.49;95.44;100865.72;6191123;23;20012;-86
2022/06/25 04:47:22;;;;;;;3.50;3.07;;;;;;;16.58;94.97;100866.13;6220189;23;20606;-86
2022/06/25 04:49:50;;;;;;;6.50;2.83;;;;;;;16.69;95.59;100875.28;6219611;23;20008;-86
2022/06/25 04:52:16;;;;;;;7.18;3.38;;;;;;;16.75;94.11;100873.44;6247176;23;20430;-86
2022/06/25 04:54:44;;;;;;;5.07;2.80;;;;;;;16.85;93.71;100870.81;6220840;23;20011;-86
2022/06/25 04:57:09;;;;;;;5.93;3.20;;;;;;;16.92;92.99;100882.44;6221023;23;20008;-86
2022/06/25 04:59:37;;;;;;;6.97;3.20;;;;;;;16.94;92.37;100874.75;6220287;23;20004;-86
2022/06/25 05:02:03;;;;;;;6.45;3.17;;;;;;;16.93;92.26;100880.50;6220959;23;20449;-86
2022/06/25 05:04:28;;;;;;;5.65;3.03;;;;;;;16.96;93.14;100888.22;6220339;23;20001;-86
2022/06/25 05:06:53;;;;;;;4.67;3.20;;;;;;;16.96;92.22;100897.28;6195426;23;20370;-86
2022/06/25 05:09:19;;;;;;;6.43;3.10;;;;;;;16.95;91.73;100897.53;6220430;23;20004;-86
2022/06/25 05:11:56;;;;;;;11.90;3.08;;;;;;;16.91;92.44;100885.44;6195270;23;20011;-86
2022/06/25 05:14:24;;;;;;;5.07;3.07;;;;;;;16.90;92.54;100886.50;6248304;23;20004;-86
2022/06/25 05:16:56;;;;;;;8.55;3.65;;;;;;;16.90;92.35;100892.81;6220620;23;20082;-85
2022/06/25 05:19:29;;;;;;;6.15;3.10;;;;;;;16.91;92.71;100894.47;6247044;23;20004;-86
2022/06/25 05:21:55;;;;;;;4.20;3.22;;;;;;;16.94;92.62;100898.63;6221065;23;20008;-86
2022/06/25 05:24:22;;;;;;;3.77;3.33;;;;;;;16.98;91.97;100907.97;6219681;23;20106;-86
2022/06/25 05:26:48;;;;;;;7.07;3.67;;;;;;;17.05;92.54;100902.28;6247070;23;20035;-86
2022/06/25 05:29:16;;;;;;;6.10;3.27;;;;;;;17.10;91.59;100897.69;6247488;23;20418;-86
2022/06/25 05:31:43;;;;;;;7.32;3.20;;;;;;;17.20;91.00;100896.97;6219939;23;20018;-86
2022/06/25 05:34:09;;;;;;;9.52;3.67;;;;;;;17.25;90.89;100893.47;6220777;23;20307;-86
2022/06/25 05:36:34;;;;;;;6.10;3.13;;;;;;;17.37;90.48;100905.09;6247686;23;20062;-86
2022/06/25 05:39:00;;;;;;;11.17;2.90;;;;;;;17.41;89.99;100908.97;6220533;23;20477;-86
2022/06/25 05:41:25;;;;;;;9.30;3.30;;;;;;;17.42;89.52;100905.16;6220282;23;20028;-84
2022/06/25 05:44:03;;;;;;;4.45;3.08;;;;;;;17.46;88.53;100909.00;6195244;23;20008;-87
2022/06/25 05:46:30;;;;;;;5.27;3.33;;;;;;;17.46;88.58;100916.41;6196450;23;20008;-87
2022/06/25 05:48:58;;;;;;;6.72;3.08;;;;;;;17.47;88.27;100916.16;6221202;23;20015;-88
2022/06/25 05:51:27;;;;;;;6.60;3.30;;;;;;;17.43;88.57;100905.97;6221054;23;20342;-88
2022/06/25 05:53:52;;;;;;;4.63;3.03;;;;;;;17.41;88.58;100917.19;6220200;23;20008;-87
2022/06/25 05:56:18;;;;;;;8.23;3.20;;;;;;;17.47;88.57;100926.31;6219944;23;20338;-85
2022/06/25 05:58:43;;;;;;;8.13;3.67;;;;;;;17.56;88.28;100929.41;6247067;23;20071;-85
2022/06/25 06:01:09;;;;;;;7.78;3.50;;;;;;;17.65;88.35;100922.34;6195083;23;20066;-85
2022/06/25 06:03:34;;;;;;;7.50;3.30;;;;;;;17.80;85.86;100921.66;6219772;23;20008;-84
2022/06/25 06:06:05;;;;;;;7.65;3.55;;;;;;;17.87;85.84;100933.22;6194888;23;20019;-85
2022/06/25 06:08:30;;;;;;;8.27;3.23;;;;;;;17.98;86.29;100928.66;6219802;23;20431;-85
2022/06/25 06:10:56;;;;;;;8.15;3.40;;;;;;;18.14;86.42;100933.19;6220664;23;20037;-85
2022/06/25 06:13:25;;;;;;;7.07;3.10;;;;;;;18.24;86.09;100929.69;6220467;23;20047;-84
2022/06/25 06:15:50;;;;;;;6.20;3.08;;;;;;;18.31;85.20;100933.03;6194748;23;20330;-84
2022/06/25 06:18:16;;;;;;;5.47;3.33;;;;;;;18.40;84.18;100934.16;6220083;23;20004;-84
2022/06/25 06:20:41;;;;;;;6.17;3.23;;;;;;;18.38;83.76;100935.53;6194805;23;20342;-84
2022/06/25 06:23:14;;;;;;;8.23;3.25;;;;;;;18.35;83.51;100947.88;6219644;23;20012;-84
2022/06/25 06:25:49;;;;;;;7.10;3.88;;;;;;;18.40;84.06;100947.91;6194010;23;20089;-84
2022/06/25 06:28:16;;;;;;;9.60;3.70;;;;;;;18.43;82.50;100949.31;6218689;23;20004;-85
2022/06/25 06:30:41;;;;;;;6.60;4.00;;;;;;;18.46;82.17;100957.00;6219620;23;20019;-84
2022/06/25 06:33:10;;;;;;;6.22;3.60;;;;;;;18.52;83.23;100957.88;6246334;23;20008;-85
2022/06/25 06:35:35;;;;;;;9.27;3.75;;;;;;;18.55;82.83;100960.09;6246046;23;20030;-85
2022/06/25 06:38:01;;;;;;;7.53;3.30;;;;;;;18.51;82.66;100965.28;6169447;23;20428;-85
2022/06/25 06:40:26;;;;;;;9.40;3.70;;;;;;;18.47;82.38;100955.06;6219136;23;20079;-85
2022/06/25 06:42:52;;;;;;;7.97;3.80;;;;;;;18.48;82.77;100963.06;6246128;23;20008;-85
2022/06/25 06:45:17;;;;;;;6.63;3.53;;;;;;;18.46;82.90;100962.50;6219252;23;20111;-85
2022/06/25 06:47:43;;;;;;;11.00;3.40;;;;;;;18.42;83.49;100961.38;6220103;23;20004;-85
2022/06/25 06:50:14;;;;;;;4.20;3.37;;;;;;;18.47;83.40;100963.31;6219349;23;20012;-85
2022/06/25 06:52:40;;;;;;;5.00;3.42;;;;;;;18.49;82.91;100963.91;6195225;23;20059;-85
2022/06/25 06:55:06;;;;;;;5.17;3.10;;;;;;;18.53;82.60;100962.28;6219644;23;20051;-85
2022/06/25 06:57:33;;;;;;;5.25;2.90;;;;;;;18.60;82.91;100957.34;6194931;23;20012;-85
2022/06/25 07:00:02;;;;;;;13.60;3.75;;;;;;;18.70;82.84;100953.84;6219259;23;20000;-84
2022/06/25 07:02:33;;;;;;;6.85;3.50;;;;;;;18.70;80.82;100948.34;6220557;23;20306;-84
2022/06/25 07:04:59;;;;;;;8.57;3.28;;;;;;;18.73;82.08;100954.16;6219646;23;20004;-85
2022/06/25 07:07:25;;;;;;;6.83;3.30;;;;;;;18.86;81.33;100961.09;6219586;23;20008;-85
2022/06/25 07:09:50;;;;;;;5.47;2.97;;;;;;;18.88;80.48;100952.56;6246761;23;20062;-85
2022/06/25 07:12:16;;;;;;;5.03;3.23;;;;;;;18.91;80.26;100954.78;6216574;23;20082;-85
2022/06/25 07:14:42;;;;;;;7.68;3.25;;;;;;;18.95;79.00;100964.16;6219038;23;20369;-85
2022/06/25 07:17:08;;;;;;;5.47;3.27;;;;;;;18.97;79.92;100967.47;6246481;23;20004;-84
2022/06/25 07:19:33;;;;;;;6.37;3.10;;;;;;;18.98;80.07;100955.34;6245862;23;20546;-85
2022/06/25 07:21:59;;;;;;;6.47;3.10;;;;;;;19.03;78.18;100965.53;6220425;23;20034;-85
2022/06/25 07:24:27;;;;;;;7.47;3.15;;;;;;;19.09;80.61;100962.56;6219901;23;20012;-86
2022/06/25 07:26:52;;;;;;;4.93;3.05;;;;;;;19.21;78.46;100967.81;6245927;23;20075;-84
2022/06/25 07:29:18;;;;;;;7.97;3.27;;;;;;;19.21;78.24;100967.00;6219143;23;20039;-84
2022/06/25 07:31:51;;;;;;;8.83;3.20;;;;;;;19.38;78.45;100961.25;6219362;23;20374;-84
2022/06/25 07:34:17;;;;;;;4.50;3.17;;;;;;;19.55;76.18;100972.03;6219945;23;20084;-84
2022/06/25 07:36:43;;;;;;;5.55;3.30;;;;;;;19.71;76.02;100965.44;6219529;23;20471;-84
2022/06/25 07:39:08;;;;;;;4.57;2.90;;;;;;;20.00;74.84;100966.84;6219154;23;20078;-84
2022/06/25 07:41:34;;;;;;;3.37;2.37;;;;;;;20.10;75.33;100964.91;6219849;23;20016;-84
2022/06/25 07:44:02;;;;;;;5.63;2.28;;;;;;;20.10;74.20;100972.34;6219786;23;20064;-85
2022/06/25 07:46:28;;;;;;;4.45;2.47;;;;;;;20.01;74.33;100976.78;6218881;23;20016;-84
2022/06/25 07:48:53;;;;;;;6.33;2.60;;;;;;;19.91;74.50;100972.09;6221354;23;20492;-85
2022/06/25 07:54:02;;;;;;;5.57;2.28;;;;;;;20.05;74.70;100978.69;6225654;23;20073;-84
2022/06/25 07:56:28;;;;;;;4.37;2.30;;;;;;;20.15;73.70;100984.19;6221885;23;20008;-84
2022/06/25 07:58:54;;;;;;;5.23;2.40;;;;;;;20.21;72.76;100979.53;6247486;23;20713;-84
2022/06/25 08:01:19;;;;;;;6.10;2.40;;;;;;;20.36;72.35;100977.81;6220960;23;20008;-85
2022/06/25 08:03:45;;;;;;;3.80;2.40;;;;;;;20.56;72.37;100974.22;6221461;23;20427;-84
2022/06/25 08:06:12;;;;;;;8.40;2.20;;;;;;;20.62;71.81;100971.16;6220871;23;20049;-84
2022/06/25 08:08:39;;;;;;;4.47;2.60;;;;;;;20.71;71.46;100979.69;6221131;23;20027;-85
2022/06/25 08:11:05;;;;;;;5.63;2.20;;;;;;;20.66;71.48;100977.78;6196428;23;20012;-84
2022/06/25 08:13:30;;;;;;;5.43;1.95;;;;;;;20.44;71.62;100975.34;6247995;23;20015;-84
2022/06/25 08:16:03;;;;;;;4.57;1.77;;;;;;;20.29;71.65;100981.69;6220900;23;20011;-84
2022/06/25 08:18:29;;;;;;;2.20;1.60;;;;;;;20.06;73.47;100983.09;6221445;23;20011;-84
2022/06/25 08:20:54;;;;;;;3.43;2.00;;;;;;;19.96;73.77;100986.69;6247587;23;20004;-85
2022/06/25 08:23:22;;;;;;;7.27;2.00;;;;;;;19.79;74.55;100986.94;6220945;23;20061;-85
2022/06/25 08:25:48;;;;;;;4.72;1.88;;;;;;;19.65;75.01;100988.56;6220040;23;20381;-84
2022/06/25 08:28:13;;;;;;;3.50;1.80;;;;;;;19.64;75.72;100981.41;6247921;23;20469;-85
2022/06/25 08:30:43;;;;;;;7.03;2.30;;;;;;;19.55;79.79;100985.78;6220735;23;20008;-85
2022/06/25 08:33:09;;;;;;;6.10;2.20;;;;;;;19.05;82.36;100990.88;6220855;23;20004;-84
2022/06/25 08:35:35;;;;;;;4.97;2.30;;;;;;;18.88;84.73;100993.81;6247440;23;20061;-84
2022/06/25 08:38:02;;;;;;;5.67;2.27;;;;;;;18.94;84.44;100989.97;6248085;23;20326;-84
2022/06/25 08:40:28;;;;;;;6.82;2.28;;;;;;;18.97;81.08;100994.97;6195872;23;20019;-84
2022/06/25 08:42:53;;;;;;;4.18;2.03;;;;;;;19.23;80.30;100981.31;6195784;23;20004;-85
2022/06/25 08:45:29;;;;;;;3.27;2.40;;;;;;;19.51;78.41;100987.44;6220171;23;20810;-85
2022/06/25 08:47:59;;;;;;;5.53;2.33;;;;;;;19.92;76.75;100991.09;6220825;23;20023;-84
2022/06/25 08:50:24;;;;;;;6.22;2.30;;;;;;;20.18;74.53;100982.81;6247446;23;20043;-84
2022/06/25 08:52:52;;;;;;;7.33;2.63;;;;;;;20.41;73.04;100980.59;6220420;23;20008;-85
2022/06/25 08:55:36;;;;;;;9.20;2.17;;;;;;;20.66;72.93;100988.00;6221180;23;20000;-84
2022/06/25 08:58:02;;;;;;;5.68;1.98;;;;;;;;;;6220765;23;20452;-84
2022/06/25 09:00:32;;;;;;;6.67;2.50;;;;;;;20.85;71.18;100988.22;6196528;23;20091;-85
2022/06/25 09:02:59;;;;;;;3.53;2.00;;;;;;;21.01;70.24;100992.56;6220625;23;20036;-84
2022/06/25 09:05:33;;;;;;;4.85;1.98;;;;;;;21.26;70.68;100988.03;6220860;23;20031;-85
2022/06/25 09:08:07;;;;;;;4.30;2.33;;;;;;;21.30;70.43;100988.28;6220081;23;20091;-85
2022/06/25 09:10:34;;;;;;;8.33;1.97;;;;;;;21.38;70.04;101004.25;6247493;23;20046;-85
2022/06/25 09:13:03;;;;;;;7.15;2.00;;;;;;;21.30;68.41;100993.81;6221415;23;20008;-85
2022/06/25 09:15:28;;;;;;;4.18;1.92;;;;;;;21.14;69.42;100993.91;6220034;23;20015;-85
2022/06/25 09:17:54;;;;;;;4.70;1.90;;;;;;;20.97;69.04;100997.00;6247055;23;20004;-84
2022/06/25 09:20:20;;;;;;;3.60;1.85;;;;;;;20.91;70.65;101003.63;6220565;23;20001;-84
2022/06/25 09:23:03;;;;;;;5.77;1.70;;;;;;;21.05;70.92;100990.06;6195164;23;20346;-85
2022/06/25 09:25:30;;;;;;;5.13;1.98;;;;;;;21.41;69.43;100995.41;6221140;23;20004;-85
2022/06/25 09:27:59;;;;;;;6.65;1.90;;;;;;;21.79;67.00;100997.66;6220588;23;20011;-85
2022/06/25 09:30:26;;;;;;;4.18;1.80;;;;;;;21.88;67.13;100995.97;6220639;23;20011;-85
2022/06/25 09:32:58;;;;;;;3.55;1.60;;;;;;;22.05;66.80;100990.00;6220262;23;20004;-85
2022/06/25 09:35:29;;;;;;;6.87;2.10;;;;;;;22.10;65.52;100994.66;6220409;23;20058;-85
2022/06/25 09:38:01;;;;;;;4.47;1.77;;;;;;;22.11;65.98;100994.38;6246991;23;20000;-85
2022/06/25 09:40:26;;;;;;;2.20;1.58;;;;;;;22.30;65.62;100988.13;6220018;23;20000;-84
2022/06/25 09:42:52;;;;;;;4.20;1.70;;;;;;;22.38;63.20;100996.66;6245666;23;20008;-85
2022/06/25 09:45:17;;;;;;;4.20;1.95;;;;;;;22.36;64.29;100995.28;6220060;23;20015;-85
2022/06/25 09:47:44;;;;;;;5.33;2.10;;;;;;;22.61;63.82;100991.44;6219899;23;20004;-85
2022/06/25 09:50:16;;;;;;;3.78;1.73;;;;;;;22.86;62.82;100992.25;6219816;23;20004;-85
2022/06/25 09:53:08;;;;;;;7.40;1.90;;;;;;;23.09;62.14;101009.94;6220800;23;20084;-85
2022/06/25 09:55:39;;;;;;;3.00;1.90;;;;;;;23.14;59.95;100989.75;6214585;23;20015;-85
2022/06/25 09:58:35;;;;;;;;;;;;;;;;;;;;;
2022/06/25 10:01:03;;;;;;;4.10;1.50;;;;;;;23.29;60.10;101003.38;6245670;23;20082;-85
2022/06/25 10:03:30;;;;;;;2.83;1.52;;;;;;;23.47;58.39;100994.25;6220312;23;20040;-85
2022/06/25 10:05:59;;;;;;;3.70;1.80;;;;;;;23.48;57.59;101004.19;6246916;23;20000;-85
2022/06/25 10:08:29;;;;;;;4.37;1.97;;;;;;;23.21;58.94;100992.94;6170435;23;20008;-85
2022/06/25 10:10:55;;;;;;;4.50;2.00;;;;;;;23.73;58.74;101001.34;6246283;23;20346;-85
2022/06/25 10:13:22;;;;;;;6.25;1.83;;;;;;;23.80;57.19;100999.03;6219593;23;20008;-85
2022/06/25 10:15:47;;;;;;;5.88;2.05;;;;;;;23.82;57.51;100986.50;6246552;23;20442;-85
2022/06/25 10:18:14;;;;;;;3.47;1.83;;;;;;;23.82;56.75;100997.59;6194702;23;20004;-85
2022/06/25 10:20:41;;;;;;;5.57;1.88;;;;;;;23.74;59.06;100992.75;6219817;23;20012;-85
2022/06/25 10:23:10;;;;;;;3.65;1.60;;;;;;;23.78;57.38;100982.72;6194655;23;20016;-85
2022/06/25 10:25:37;;;;;;;2.50;1.30;;;;;;;23.59;56.12;100992.97;6220156;23;20008;-85
2022/06/25 10:28:10;;;;;;;2.97;1.60;;;;;;;23.55;55.80;100984.44;6219466;23;20015;-85
2022/06/25 10:30:46;;;;;;;4.28;1.40;;;;;;;23.43;57.09;100987.66;6246623;23;20031;-85
2022/06/25 10:33:14;;;;;;;3.53;1.45;;;;;;;23.53;57.94;100977.56;6220047;23;20056;-85
2022/06/25 10:35:54;;;;;;;3.80;1.73;;;;;;;23.73;56.99;100973.66;6219526;23;20004;-85
2022/06/25 10:38:23;;;;;;;3.10;1.40;;;;;;;23.62;54.92;100971.06;6196182;23;20016;-85
2022/06/25 10:43:59;;;;;;;2.47;1.20;;;;;;;23.83;53.62;100982.63;6246902;23;20020;-85
2022/06/25 10:46:36;;;;;;;2.33;1.40;;;;;;;23.84;54.86;100983.44;6219504;23;20020;-85
2022/06/25 10:49:13;;;;;;;1.70;1.40;;;;;;;23.88;53.84;100992.00;6220644;23;20038;-85
2022/06/25 10:51:38;;;;;;;2.35;1.38;;;;;;;23.90;53.52;100985.06;6246766;23;20004;-85
2022/06/25 10:54:06;;;;;;;2.03;1.33;;;;;;;24.61;52.82;100970.22;6245941;23;20080;-84
2022/06/25 10:56:54;;;;;;;2.00;1.25;;;;;;;25.27;52.95;100978.28;6219322;23;20019;-85
2022/06/25 10:59:31;;;;;;;2.03;1.25;;;;;;;25.47;50.48;100990.94;6194801;23;20027;-85
2022/06/25 11:01:58;;;;;;;2.70;1.30;;;;;;;25.77;49.63;100974.66;6246555;23;20000;-85
2022/06/25 11:04:31;;;;;;;2.33;1.10;;;;;;;26.28;46.56;100976.19;6219454;23;20008;-85
2022/06/25 11:07:14;;;;;;;2.47;1.30;;;;;;;26.24;46.60;100972.38;6219567;23;20008;-86
2022/06/25 11:09:53;;;;;;;4.65;1.35;;;;;;;25.95;48.69;100968.06;6246054;23;20004;-85
2022/06/25 11:12:19;;;;;;;2.85;1.10;;;;;;;25.80;46.96;100972.06;6219855;23;20019;-85
2022/06/25 11:15:16;;;;;;;1.77;1.25;;;;;;;25.79;47.86;100964.03;6219674;23;20008;-85
2022/06/25 11:21:04;;;;;;;4.32;1.30;;;;;;;25.98;46.47;100961.06;6246783;23;20030;-85
2022/06/25 11:23:29;;;;;;;3.08;1.50;;;;;;;25.59;47.73;100968.97;6248577;23;20000;-85
2022/06/25 11:28:48;;;;;;;3.45;1.10;;;;;;;25.90;47.03;100980.16;6248136;23;20111;-85
2022/06/25 11:31:29;;;;;;;2.67;1.03;;;;;;;25.75;47.89;100963.88;6196490;23;20012;-86
2022/06/25 11:34:00;;;;;;;2.72;1.40;;;;;;;26.99;45.42;100982.84;6221255;23;20066;-85
2022/06/25 11:36:28;;;;;;;2.28;1.40;;;;;;;27.50;43.02;100984.09;6198095;23;20019;-85
2022/06/25 11:38:54;;;;;;;1.95;1.08;;;;;;;28.47;41.68;100977.22;6221777;23;20004;-85
2022/06/25 11:41:26;;;;;;;2.08;1.40;;;;;;;27.96;41.47;100973.41;6247687;23;20012;-85
2022/06/25 11:43:52;;;;;;;2.57;1.50;;;;;;;27.05;43.90;100989.91;6221938;23;20050;-85
2022/06/25 11:46:19;;;;;;;3.55;1.25;;;;;;;26.30;46.05;100989.75;6220926;23;20019;-85
2022/06/25 11:48:49;;;;;;;2.42;1.52;;;;;;;25.59;46.65;100984.81;6196609;23;20343;-85
2022/06/25 11:51:25;;;;;;;2.08;1.20;;;;;;;25.10;48.81;100978.91;6221248;23;20069;-85
2022/06/25 11:53:56;;;;;;;1.27;0.90;;;;;;;24.69;48.87;100966.75;6247838;23;20392;-85